Terminal Aerodrome Forecast
Issued by NWS

Home | Current Version | Previous Version | Text Only | Print | Product List | Glossary On
Versions: 1 2 3 4 5 6 7 8 9 10 11 12 13 14 15 16 17
000
FTUS45 KGJT 241737
TAFEGE
TAF
KEGE 241737Z 2418/2518 VRB03KT P6SM SCT025
     FM242100 23011KT P6SM BKN100
     FM250100 24006KT P6SM BKN100
     FM250600 00000KT P6SM FEW250=

USA.gov is the U.S. government's official web portal to all federal, state and local government web resources and services.